Terminal Aerodrome Forecast
Issued by NWS Twin Cities, MN

Home | Current Version | Previous Version | Text Only | Print | Product List | Glossary On
Versions: 1 2 3 4 5 6 7 8 9 10 11 12 13 14 15 16 17 18
000
FTUS43 KMPX 280520
TAFSTC
TAF
KSTC 280520Z 2806/2906 06011KT P6SM OVC060
     FM280800 06012KT 6SM -RA BR OVC060
     FM281500 06008KT P6SM OVC090
     FM290200 04004KT P6SM OVC120=

USA.gov is the U.S. government's official web portal to all federal, state and local government web resources and services.